Time;durP1;ratioP1;P1;durP2;ratioP2;P2;SDS_P1;SDS_P2;PMS_P1;PMS_P2;Temp;Humidity;BMP_temperature;BMP_pressure;BME280_temperature;BME280_humidity;BME280_pressure;Samples;Min_cycle;Max_cycle;Signal;HPM_P1;HPM_P2
2021/07/12 00:02:15;;;;;;;17.23;7.25;;;640.50;1638.40;;;;;;5115784;27;20484;-83
2021/07/12 00:04:41;;;;;;;16.63;6.57;;;640.20;1664.00;;;;;;5115973;27;20109;-83
2021/07/12 00:07:06;;;;;;;10.13;6.55;;;615.30;1689.60;;;;;;5115992;27;20019;-84
2021/07/12 00:09:32;;;;;;;12.40;6.85;;;640.10;1664.00;;;;;;5115867;27;20118;-83
2021/07/12 00:11:58;;;;;;;17.05;6.55;;;640.20;1664.00;;;;;;5133955;27;20086;-83
2021/07/12 00:14:24;;;;;;;21.10;7.00;;;640.10;1664.00;;;;;;5160640;27;20075;-83
2021/07/12 00:16:49;;;;;;;10.93;6.93;;;615.30;1689.60;;;;;;5135845;27;20067;-82
2021/07/12 00:19:15;;;;;;;21.60;7.15;;;615.10;1715.20;;;;;;5126550;27;20027;-84
2021/07/12 00:21:41;;;;;;;14.27;6.82;;;615.10;1715.20;;;;;;5124632;27;20183;-83
2021/07/12 00:24:07;;;;;;;10.00;6.43;;;615.00;1715.20;;;;;;5130020;27;20015;-83
2021/07/12 00:26:33;;;;;;;11.15;7.25;;;614.60;1766.40;;;;;;5131262;27;20018;-83
2021/07/12 00:28:59;;;;;;;15.13;6.75;;;614.60;1766.40;;;;;;5127618;27;20022;-83
2021/07/12 00:31:25;;;;;;;15.98;7.43;;;614.40;1766.40;;;;;;5134571;27;20035;-83
2021/07/12 00:33:51;;;;;;;10.75;7.15;;;589.70;1792.00;;;;;;5132742;27;20106;-83
2021/07/12 00:36:16;;;;;;;11.52;7.03;;;589.70;1766.40;;;;;;5132487;27;20121;-83
2021/07/12 00:38:42;;;;;;;10.38;6.50;;;589.70;1766.40;;;;;;5135136;27;20029;-83
2021/07/12 00:41:08;;;;;;;16.38;7.13;;;589.70;1792.00;;;;;;5130916;27;20373;-83
2021/07/12 00:43:35;;;;;;;12.32;6.53;;;589.70;1792.00;;;;;;5125399;27;20035;-83
2021/07/12 00:46:01;;;;;;;12.05;6.90;;;614.50;1766.40;;;;;;5124023;27;20031;-82
2021/07/12 00:48:28;;;;;;;14.88;7.85;;;614.40;1766.40;;;;;;5134815;27;20071;-86
2021/07/12 00:50:55;;;;;;;13.35;7.85;;;589.70;1792.00;;;;;;5129541;27;20071;-83
2021/07/12 00:53:21;;;;;;;17.98;7.95;;;589.70;1792.00;;;;;;5129286;27;20026;-82
2021/07/12 00:55:50;;;;;;;12.45;7.28;;;589.60;1817.60;;;;;;5128373;27;20018;-83
2021/07/12 00:58:27;;;;;;;14.32;7.57;;;589.70;1792.00;;;;;;5161350;27;20106;-82
2021/07/12 01:00:56;;;;;;;18.70;7.05;;;589.70;1792.00;;;;;;5128822;27;20031;-83
2021/07/12 01:03:23;;;;;;;13.55;6.78;;;589.70;1792.00;;;;;;5134842;27;20418;-83
2021/07/12 01:05:49;;;;;;;11.40;7.88;;;589.40;1817.60;;;;;;5130258;27;20035;-82
2021/07/12 01:08:15;;;;;;;13.75;7.55;;;589.30;1843.20;;;;;;5133961;27;20016;-83
2021/07/12 01:10:46;;;;;;;13.30;7.07;;;589.30;1843.20;;;;;;5132570;27;20038;-83
2021/07/12 01:13:35;;;;;;;10.00;7.03;;;589.60;1817.60;;;;;;5145276;27;20019;-82
2021/07/12 01:16:24;;;;;;;9.85;6.90;;;614.40;1766.40;;;;;;5126973;27;20102;-83
2021/07/12 01:19:10;;;;;;;12.98;6.93;;;614.50;1766.40;;;;;;5151658;27;20019;-82
2021/07/12 01:21:42;;;;;;;;;;;614.60;1766.40;;;;;;5137426;27;20042;-83
2021/07/12 01:24:49;;;;;;;11.88;6.85;;;614.50;1766.40;;;;;;5169803;27;19903;-82
2021/07/12 01:27:40;;;;;;;12.77;7.60;;;589.50;1792.00;;;;;;5123698;27;20472;-82
2021/07/12 01:30:12;;;;;;;11.70;7.45;;;589.60;1792.00;;;;;;5152889;27;20019;-83
2021/07/12 01:32:47;;;;;;;13.77;7.88;;;589.70;1792.00;;;;;;5126861;27;20010;-83
2021/07/12 01:35:33;;;;;;;12.07;7.43;;;589.60;1792.00;;;;;;5148473;27;20031;-82
2021/07/12 01:38:15;;;;;;;15.82;8.13;;;589.40;1817.60;;;;;;5166191;27;20051;-83
2021/07/12 01:40:47;;;;;;;13.02;7.00;;;589.30;1817.60;;;;;;5163722;27;20031;-83
2021/07/12 01:43:41;;;;;;;13.13;8.10;;;589.20;1843.20;;;;;;5129686;27;20022;-83
2021/07/12 01:46:39;;;;;;;16.95;7.88;;;589.10;1843.20;;;;;;5054534;28;20059;-82
2021/07/12 01:49:12;;;;;;;13.57;8.00;;;589.00;1843.20;;;;;;5020385;28;20037;-83
2021/07/12 01:51:52;;;;;;;11.27;8.00;;;589.10;1843.20;;;;;;5024610;28;20041;-83
2021/07/12 01:54:44;;;;;;;11.20;8.00;;;589.00;1843.20;;;;;;5029880;28;20072;-82
2021/07/12 01:57:20;;;;;;;9.98;6.72;;;588.80;1868.80;;;;;;5024289;28;20034;-82
2021/07/12 02:00:01;;;;;;;15.40;7.68;;;588.80;1868.80;;;;;;5026167;28;20104;-82
2021/07/12 02:02:32;;;;;;;11.60;7.97;;;588.80;1868.80;;;;;;5012023;28;20066;-82
2021/07/12 02:05:05;;;;;;;11.80;7.35;;;588.80;1868.80;;;;;;5013162;28;20025;-82
2021/07/12 02:07:33;;;;;;;13.98;7.65;;;564.10;1868.80;;;;;;5028052;28;20025;-82
2021/07/12 02:10:01;;;;;;;10.77;7.55;;;564.10;1868.80;;;;;;5026499;28;20521;-82
2021/07/12 02:12:29;;;;;;;15.63;7.05;;;564.10;1868.80;;;;;;5010451;28;20045;-82
2021/07/12 02:14:56;;;;;;;9.63;7.75;;;564.10;1868.80;;;;;;5009149;28;20056;-82
2021/07/12 02:17:24;;;;;;;10.02;6.53;;;564.00;1868.80;;;;;;5021471;28;20030;-83
2021/07/12 02:19:50;;;;;;;13.48;7.32;;;564.10;1868.80;;;;;;5023604;28;20045;-82
2021/07/12 02:22:17;;;;;;;8.52;7.35;;;564.00;1868.80;;;;;;5014834;28;20071;-83
2021/07/12 02:24:46;;;;;;;10.75;6.88;;;564.10;1843.20;;;;;;5069718;27;20030;-84
2021/07/12 02:27:19;;;;;;;14.70;7.80;;;588.80;1843.20;;;;;;5129059;27;20424;-84
2021/07/12 02:29:45;;;;;;;15.63;7.47;;;588.80;1843.20;;;;;;5141482;27;20036;-83
2021/07/12 02:32:11;;;;;;;17.38;7.95;;;588.90;1843.20;;;;;;5137271;27;20021;-83
2021/07/12 02:34:39;;;;;;;13.98;7.63;;;588.90;1843.20;;;;;;5132808;27;20106;-82
2021/07/12 02:37:06;;;;;;;10.48;7.45;;;588.90;1843.20;;;;;;5132356;27;20069;-83
2021/07/12 02:39:33;;;;;;;10.13;7.20;;;589.10;1817.60;;;;;;5131609;27;20472;-83
2021/07/12 02:42:02;;;;;;;13.30;8.02;;;589.10;1817.60;;;;;;5133963;27;20079;-83
2021/07/12 02:44:30;;;;;;;14.07;7.45;;;589.00;1843.20;;;;;;5130269;27;20460;-83
2021/07/12 02:46:58;;;;;;;15.82;7.78;;;589.00;1843.20;;;;;;5129385;27;20114;-83
2021/07/12 02:49:24;;;;;;;15.38;7.72;;;588.90;1843.20;;;;;;5137310;27;20091;-83
2021/07/12 02:51:55;;;;;;;12.77;8.10;;;589.10;1843.20;;;;;;5133791;27;20027;-82
2021/07/12 02:54:36;;;;;;;12.70;7.55;;;589.10;1843.20;;;;;;5131857;27;20030;-84
2021/07/12 02:57:01;;;;;;;14.68;7.50;;;589.30;1817.60;;;;;;5129205;27;20031;-84
2021/07/12 02:59:27;;;;;;;12.70;7.43;;;589.50;1792.00;;;;;;5134863;27;20019;-84
2021/07/12 03:01:53;;;;;;;14.27;7.63;;;589.60;1792.00;;;;;;5129954;27;20082;-82
2021/07/12 03:04:19;;;;;;;13.82;7.80;;;589.60;1792.00;;;;;;5132705;27;20082;-83
2021/07/12 03:06:50;;;;;;;23.13;8.35;;;589.50;1792.00;;;;;;5126100;27;20038;-83
2021/07/12 03:09:28;;;;;;;16.38;7.60;;;589.40;1817.60;;;;;;5122878;27;20023;-83
2021/07/12 03:11:58;;;;;;;17.98;7.97;;;589.60;1792.00;;;;;;5125752;27;20502;-82
2021/07/12 03:14:34;;;;;;;14.80;7.00;;;589.70;1766.40;;;;;;5131705;27;20050;-83
2021/07/12 03:17:01;;;;;;;15.98;7.32;;;614.40;1792.00;;;;;;5132314;27;20022;-83
2021/07/12 03:19:33;;;;;;;11.85;7.78;;;614.40;1817.60;;;;;;5131671;27;20031;-83
2021/07/12 03:22:04;;;;;;;12.05;7.93;;;614.50;1843.20;;;;;;5130316;27;20137;-82
2021/07/12 03:24:31;;;;;;;14.70;7.25;;;614.50;1843.20;;;;;;5127478;27;20514;-82
2021/07/12 03:26:59;;;;;;;9.98;7.60;;;614.50;1868.80;;;;;;5124703;27;20433;-81
2021/07/12 03:29:30;;;;;;;13.05;7.85;;;614.50;1894.40;;;;;;5127342;27;20118;-82
2021/07/12 03:31:58;;;;;;;11.60;7.53;;;614.60;1894.40;;;;;;5130636;27;20392;-82
2021/07/12 03:34:27;;;;;;;10.63;7.45;;;614.60;1894.40;;;;;;5127011;27;20067;-84
2021/07/12 03:36:53;;;;;;;16.77;8.38;;;614.80;1868.80;;;;;;5126740;27;20028;-84
2021/07/12 03:39:21;;;;;;;16.27;7.22;;;614.80;1843.20;;;;;;5131787;27;20483;-83
2021/07/12 03:41:47;;;;;;;13.48;7.88;;;614.80;1843.20;;;;;;5123507;27;20110;-83
2021/07/12 03:44:13;;;;;;;11.95;7.45;;;614.90;1843.20;;;;;;5129776;27;20590;-84
2021/07/12 03:46:43;;;;;;;10.77;8.02;;;614.90;1817.60;;;;;;5130135;27;20429;-86
2021/07/12 03:49:14;;;;;;;14.68;7.15;;;614.80;1843.20;;;;;;5129165;27;20019;-81
2021/07/12 03:51:41;;;;;;;12.43;7.57;;;614.90;1843.20;;;;;;5133228;27;20030;-82
2021/07/12 03:54:07;;;;;;;17.40;8.07;;;615.00;1843.20;;;;;;5129736;27;20058;-83
2021/07/12 03:56:34;;;;;;;12.52;8.40;;;615.00;1817.60;;;;;;5129379;27;20021;-80
2021/07/12 03:59:00;;;;;;;18.17;8.80;;;615.00;1817.60;;;;;;5124840;27;20015;-80
2021/07/12 04:01:26;;;;;;;10.55;7.43;;;615.00;1843.20;;;;;;5130920;27;20019;-79
2021/07/12 04:03:54;;;;;;;16.58;7.35;;;615.00;1843.20;;;;;;5126676;27;20044;-82
2021/07/12 04:06:20;;;;;;;16.98;8.52;;;615.10;1843.20;;;;;;5131501;27;20026;-82
2021/07/12 04:08:46;;;;;;;17.92;7.80;;;614.90;1868.80;;;;;;5135320;27;20050;-82
2021/07/12 04:11:12;;;;;;;21.73;8.95;;;614.90;1868.80;;;;;;5129391;27;20022;-81
2021/07/12 04:13:39;;;;;;;16.90;8.63;;;614.90;1868.80;;;;;;5166952;27;20022;-81
2021/07/12 04:16:05;;;;;;;14.15;7.70;;;615.00;1843.20;;;;;;5135808;27;20118;-78
2021/07/12 04:18:31;;;;;;;20.45;7.60;;;615.20;1817.60;;;;;;5129203;27;20033;-79
2021/07/12 04:20:58;;;;;;;21.70;8.38;;;615.30;1792.00;;;;;;5131878;27;20050;-82
2021/07/12 04:23:23;;;;;;;13.98;8.13;;;615.30;1792.00;;;;;;5132305;27;20019;-83
2021/07/12 04:25:49;;;;;;;19.33;7.65;;;640.00;1792.00;;;;;;5116491;27;20494;-78
2021/07/12 04:28:15;;;;;;;11.93;7.85;;;640.10;1792.00;;;;;;5125114;27;20488;-78
2021/07/12 04:30:41;;;;;;;15.85;8.68;;;640.20;1766.40;;;;;;5122685;27;20106;-78
2021/07/12 04:33:06;;;;;;;13.20;8.30;;;640.10;1766.40;;;;;;5141690;27;20064;-77
2021/07/12 04:35:32;;;;;;;12.52;8.15;;;640.10;1766.40;;;;;;5120876;27;20051;-79
2021/07/12 04:37:58;;;;;;;12.05;7.82;;;640.20;1766.40;;;;;;5120524;27;20061;-81
2021/07/12 04:40:24;;;;;;;27.00;9.30;;;640.20;1766.40;;;;;;5128993;27;20031;-79
2021/07/12 04:42:50;;;;;;;13.93;8.43;;;615.30;1817.60;;;;;;5139088;27;20086;-79
2021/07/12 04:45:16;;;;;;;23.02;8.98;;;615.20;1792.00;;;;;;5125503;27;20576;-78
2021/07/12 04:47:41;;;;;;;16.35;9.10;;;615.00;1792.00;;;;;;5121455;27;20061;-79
2021/07/12 04:50:08;;;;;;;26.50;9.07;;;614.90;1792.00;;;;;;5134551;27;20014;-78
2021/07/12 04:52:34;;;;;;;17.60;8.40;;;614.90;1792.00;;;;;;5153032;27;20025;-83
2021/07/12 04:55:02;;;;;;;22.02;9.43;;;614.80;1817.60;;;;;;5145619;27;20101;-78
2021/07/12 04:57:28;;;;;;;13.32;8.07;;;614.80;1817.60;;;;;;5134352;27;20063;-82
2021/07/12 04:59:54;;;;;;;15.00;8.90;;;615.00;1792.00;;;;;;5152984;27;20433;-78
2021/07/12 05:02:19;;;;;;;19.08;8.43;;;615.00;1792.00;;;;;;5134556;27;20472;-78
2021/07/12 05:04:45;;;;;;;13.32;8.40;;;615.20;1792.00;;;;;;5133874;27;20023;-77
2021/07/12 05:07:13;;;;;;;12.43;8.05;;;615.30;1792.00;;;;;;5134628;27;20027;-78
2021/07/12 05:09:39;;;;;;;21.23;8.38;;;640.00;1766.40;;;;;;5132441;27;20418;-78
2021/07/12 05:12:08;;;;;;;12.80;8.50;;;640.00;1792.00;;;;;;5134685;27;20083;-79
2021/07/12 05:14:37;;;;;;;17.08;8.40;;;615.30;1792.00;;;;;;5134233;27;20019;-79
2021/07/12 05:17:04;;;;;;;15.20;7.55;;;640.00;1792.00;;;;;;5134960;27;20436;-78
2021/07/12 05:19:30;;;;;;;16.30;9.35;;;640.00;1792.00;;;;;;5134154;27;20034;-78
2021/07/12 05:21:56;;;;;;;11.63;8.32;;;640.20;1766.40;;;;;;5134375;27;20015;-78
2021/07/12 05:24:22;;;;;;;16.52;8.50;;;640.40;1766.40;;;;;;5134322;27;20034;-82
2021/07/12 05:26:48;;;;;;;15.68;8.73;;;640.40;1766.40;;;;;;5133719;27;20031;-78
2021/07/12 05:29:14;;;;;;;27.75;8.93;;;640.50;1740.80;;;;;;5153273;27;20064;-79
2021/07/12 05:31:39;;;;;;;13.48;8.73;;;640.60;1740.80;;;;;;5153031;27;20071;-78
2021/07/12 05:34:05;;;;;;;17.63;9.30;;;640.60;1740.80;;;;;;5151919;27;20519;-79
2021/07/12 05:36:31;;;;;;;13.48;7.45;;;640.60;1715.20;;;;;;5134389;27;20048;-79
2021/07/12 05:38:57;;;;;;;12.50;8.18;;;640.70;1740.80;;;;;;5132867;27;20118;-83
2021/07/12 05:41:22;;;;;;;25.85;9.52;;;640.90;1740.80;;;;;;5149989;27;20383;-79
2021/07/12 05:43:48;;;;;;;15.57;8.27;;;665.60;1740.80;;;;;;5152911;27;20049;-78
2021/07/12 05:46:14;;;;;;;19.38;8.90;;;665.70;1715.20;;;;;;5131535;27;20106;-79
2021/07/12 05:48:39;;;;;;;16.48;8.68;;;665.60;1689.60;;;;;;5133603;27;20021;-79
2021/07/12 05:51:05;;;;;;;12.27;7.82;;;665.60;1689.60;;;;;;5135390;27;20391;-78
2021/07/12 05:53:31;;;;;;;18.35;8.52;;;665.70;1715.20;;;;;;5155151;27;20057;-78
2021/07/12 05:55:57;;;;;;;14.20;8.60;;;665.70;1689.60;;;;;;5136756;27;20471;-84
2021/07/12 05:58:23;;;;;;;16.75;8.68;;;665.80;1715.20;;;;;;5136039;27;20038;-79
2021/07/12 06:00:48;;;;;;;13.60;8.73;;;665.80;1664.00;;;;;;5155161;27;20080;-79
2021/07/12 06:03:14;;;;;;;12.82;8.50;;;666.00;1638.40;;;;;;5153568;27;20015;-86
2021/07/12 06:05:40;;;;;;;17.77;9.38;;;666.10;1638.40;;;;;;5156567;27;20517;-78
2021/07/12 06:08:07;;;;;;;16.70;9.68;;;666.20;1612.80;;;;;;5153437;27;20046;-81
2021/07/12 06:10:32;;;;;;;23.38;8.77;;;666.30;1612.80;;;;;;5137804;27;20498;-78
2021/07/12 06:12:58;;;;;;;14.23;8.88;;;691.20;1612.80;;;;;;5137479;27;20023;-84
2021/07/12 06:15:24;;;;;;;15.50;8.40;;;691.20;1587.20;;;;;;5155762;27;20113;-78
2021/07/12 06:17:51;;;;;;;12.52;8.68;;;691.30;1587.20;;;;;;5155878;27;20484;-79
2021/07/12 06:20:18;;;;;;;16.83;9.77;;;691.30;1561.60;;;;;;5136856;27;20031;-78
2021/07/12 06:22:46;;;;;;;17.00;9.02;;;691.30;1587.20;;;;;;5137583;27;20018;-79
2021/07/12 06:25:14;;;;;;;19.05;9.18;;;691.40;1561.60;;;;;;5153774;27;20052;-79
2021/07/12 06:27:40;;;;;;;16.70;8.32;;;691.50;1561.60;;;;;;5122896;27;20022;-79
2021/07/12 06:30:07;;;;;;;15.23;9.70;;;691.70;1561.60;;;;;;5137563;27;20023;-79
2021/07/12 06:32:32;;;;;;;15.98;9.65;;;691.80;1536.00;;;;;;5156115;27;20447;-79
2021/07/12 06:34:58;;;;;;;11.90;9.00;;;691.90;1536.00;;;;;;5137274;27;20054;-79
2021/07/12 06:37:24;;;;;;;15.48;8.73;;;692.10;1561.60;;;;;;5156000;27;20015;-79
2021/07/12 06:39:50;;;;;;;12.30;9.20;;;692.10;1561.60;;;;;;5171644;27;20102;-79
2021/07/12 06:42:15;;;;;;;14.32;8.88;;;716.80;1587.20;;;;;;5159585;27;20076;-78
2021/07/12 06:44:41;;;;;;;12.18;7.80;;;716.80;1587.20;;;;;;5153199;27;20042;-79
2021/07/12 06:47:07;;;;;;;17.98;9.30;;;716.80;1587.20;;;;;;5155752;27;20075;-79
2021/07/12 06:49:33;;;;;;;14.90;9.88;;;716.80;1587.20;;;;;;5137257;27;20392;-79
2021/07/12 06:51:59;;;;;;;14.07;8.65;;;716.80;1612.80;;;;;;5171800;27;20037;-79
2021/07/12 06:54:24;;;;;;;19.05;9.65;;;716.80;1612.80;;;;;;5137166;27;20023;-79
2021/07/12 06:56:50;;;;;;;14.50;10.20;;;716.80;1612.80;;;;;;5170817;27;20030;-79
2021/07/12 06:59:16;;;;;;;11.50;9.38;;;716.80;1612.80;;;;;;5136353;27;20043;-79
2021/07/12 07:01:44;;;;;;;16.88;8.98;;;716.80;1612.80;;;;;;5135512;27;20245;-84
2021/07/12 07:04:09;;;;;;;22.80;11.60;;;716.90;1638.40;;;;;;5126520;27;20507;-79
2021/07/12 07:06:35;;;;;;;17.60;10.85;;;717.10;1638.40;;;;;;5116555;27;20055;-79
2021/07/12 07:09:01;;;;;;;13.07;9.85;;;717.20;1612.80;;;;;;5124322;27;20019;-80
2021/07/12 07:11:26;;;;;;;14.20;9.73;;;717.20;1612.80;;;;;;5140879;27;20468;-79
2021/07/12 07:13:52;;;;;;;12.93;10.20;;;717.40;1612.80;;;;;;5150244;27;20038;-79
2021/07/12 07:16:18;;;;;;;16.23;10.23;;;717.40;1612.80;;;;;;5116406;27;20034;-79
2021/07/12 07:18:44;;;;;;;16.80;10.23;;;717.40;1587.20;;;;;;5120190;27;20148;-79
2021/07/12 07:21:09;;;;;;;22.50;9.88;;;717.50;1587.20;;;;;;5126773;27;20077;-79
2021/07/12 07:23:35;;;;;;;22.38;11.45;;;717.70;1587.20;;;;;;5152322;27;20038;-83
2021/07/12 07:26:01;;;;;;;12.50;9.20;;;717.70;1587.20;;;;;;5162807;27;20031;-80
2021/07/12 07:28:27;;;;;;;12.68;9.60;;;717.70;1587.20;;;;;;5133952;27;20022;-79
2021/07/12 07:30:53;;;;;;;14.23;9.45;;;742.40;1612.80;;;;;;5136213;27;20018;-79
2021/07/12 07:33:18;;;;;;;12.82;9.57;;;742.40;1587.20;;;;;;5135840;27;20062;-79
2021/07/12 07:35:44;;;;;;;17.98;10.40;;;742.50;1561.60;;;;;;5135081;27;20054;-78
2021/07/12 07:38:10;;;;;;;11.35;9.40;;;742.50;1587.20;;;;;;5135370;27;20034;-79
2021/07/12 07:40:36;;;;;;;12.60;10.25;;;742.60;1587.20;;;;;;5135109;27;20043;-79
2021/07/12 07:43:03;;;;;;;13.00;9.40;;;742.70;1587.20;;;;;;5135554;27;20026;-79
2021/07/12 07:45:31;;;;;;;15.75;10.15;;;742.70;1587.20;;;;;;5131293;27;20095;-79
2021/07/12 07:47:57;;;;;;;12.07;9.80;;;742.80;1612.80;;;;;;5131483;27;20020;-79
2021/07/12 07:50:23;;;;;;;11.43;9.63;;;742.80;1561.60;;;;;;5130168;27;20080;-79
2021/07/12 07:52:50;;;;;;;14.77;9.90;;;742.90;1561.60;;;;;;5129942;27;20123;-79
2021/07/12 07:55:16;;;;;;;13.35;9.52;;;743.00;1561.60;;;;;;5132186;27;20388;-84
2021/07/12 07:57:43;;;;;;;14.90;10.93;;;743.00;1561.60;;;;;;5129672;27;20019;-78
2021/07/12 08:00:12;;;;;;;13.90;9.75;;;742.90;1510.40;;;;;;5128193;27;20027;-81
2021/07/12 08:02:39;;;;;;;14.18;10.13;;;743.20;1510.40;;;;;;5128609;27;20019;-79
2021/07/12 08:05:06;;;;;;;15.65;10.70;;;743.30;1561.60;;;;;;5126321;27;20023;-83
2021/07/12 08:07:36;;;;;;;15.25;10.40;;;743.10;1561.60;;;;;;5128290;27;20030;-79
2021/07/12 08:10:04;;;;;;;14.43;9.75;;;743.20;1561.60;;;;;;5128175;27;20028;-78
2021/07/12 08:12:29;;;;;;;11.95;10.52;;;743.20;1587.20;;;;;;5127541;27;20433;-79
2021/07/12 08:14:55;;;;;;;18.08;10.73;;;743.30;1536.00;;;;;;5129342;27;20118;-79
2021/07/12 08:17:21;;;;;;;14.43;10.45;;;768.10;1536.00;;;;;;5132813;27;20110;-77
2021/07/12 08:19:47;;;;;;;13.77;11.13;;;768.10;1484.80;;;;;;5132874;27;20023;-79
2021/07/12 08:22:12;;;;;;;15.88;10.80;;;768.10;1510.40;;;;;;5131048;27;20035;-78
2021/07/12 08:24:39;;;;;;;15.13;10.82;;;768.30;1510.40;;;;;;5132611;27;20011;-78
2021/07/12 08:27:05;;;;;;;17.00;10.82;;;768.10;1484.80;;;;;;5131163;27;20031;-77
2021/07/12 08:29:31;;;;;;;16.02;10.60;;;768.30;1510.40;;;;;;5132577;27;20380;-78
2021/07/12 08:31:57;;;;;;;11.52;10.23;;;768.10;1510.40;;;;;;5131771;27;20027;-77
2021/07/12 08:34:23;;;;;;;24.27;11.23;;;768.40;1484.80;;;;;;5130197;27;20019;-78
2021/07/12 08:36:50;;;;;;;19.10;12.10;;;768.50;1484.80;;;;;;5132538;27;20062;-78
2021/07/12 08:39:17;;;;;;;14.48;10.70;;;768.40;1484.80;;;;;;5131896;27;20015;-82
2021/07/12 08:41:43;;;;;;;15.68;12.02;;;768.40;1484.80;;;;;;5121310;27;20461;-79
2021/07/12 08:44:09;;;;;;;13.05;11.27;;;768.50;1510.40;;;;;;5123524;28;20484;-80
2021/07/12 08:46:34;;;;;;;13.48;11.05;;;793.70;1484.80;;;;;;5132713;28;20080;-83
2021/07/12 08:49:00;;;;;;;13.07;10.65;;;819.30;1408.00;;;;;;5134105;28;20030;-82
2021/07/12 08:51:26;;;;;;;14.93;11.55;;;820.00;1408.00;;;;;;5131447;28;20115;-80
2021/07/12 08:53:52;;;;;;;14.63;11.52;;;819.60;1408.00;;;;;;5131433;28;20031;-86
2021/07/12 08:56:19;;;;;;;19.35;11.07;;;820.00;1382.40;;;;;;5127398;28;20110;-79
2021/07/12 08:58:45;;;;;;;14.63;10.88;;;845.30;1331.20;;;;;;5132474;28;20016;-80
2021/07/12 09:01:11;;;;;;;13.55;11.00;;;845.40;1331.20;;;;;;5128144;28;20027;-92
2021/07/12 09:03:43;;;;;;;12.35;11.05;;;845.40;1356.80;;;;;;5131871;28;20070;-81
2021/07/12 09:06:16;;;;;;;16.60;12.23;;;845.40;1356.80;;;;;;5131895;28;20027;-81
2021/07/12 09:08:53;;;;;;;14.18;10.88;;;845.40;1331.20;;;;;;5131723;28;20539;-84
2021/07/12 09:11:28;;;;;;;11.27;10.02;;;870.40;1305.60;;;;;;5124758;28;20072;-86
2021/07/12 09:14:07;;;;;;;14.27;10.63;;;870.40;1305.60;;;;;;5131387;28;20038;-83
2021/07/12 09:16:40;;;;;;;15.35;11.02;;;870.90;1280.00;;;;;;5131723;28;20271;-82
2021/07/12 09:19:06;;;;;;;16.02;11.85;;;870.90;1254.40;;;;;;5131935;28;20029;-84
2021/07/12 09:21:37;;;;;;;15.35;11.73;;;870.70;1254.40;;;;;;5128641;28;20122;-90
2021/07/12 09:24:14;;;;;;;21.80;10.60;;;870.50;1305.60;;;;;;5132783;27;20023;-82
2021/07/12 09:26:42;;;;;;;13.90;11.52;;;870.50;1331.20;;;;;;5135249;27;20027;-83
2021/07/12 09:29:15;;;;;;;12.15;10.40;;;870.70;1305.60;;;;;;5134879;27;20046;-83
2021/07/12 09:31:41;;;;;;;16.40;11.57;;;871.30;1228.80;;;;;;5135297;27;20027;-82
2021/07/12 09:34:06;;;;;;;13.10;10.00;;;871.20;1228.80;;;;;;5121408;27;20080;-80
2021/07/12 09:36:34;;;;;;;20.75;11.02;;;896.00;1228.80;;;;;;5135019;27;20019;-82
2021/07/12 09:39:25;;;;;;;14.73;11.38;;;896.00;1254.40;;;;;;5134755;27;20032;-84
2021/07/12 09:41:53;;;;;;;14.55;11.32;;;871.10;1280.00;;;;;;5134372;27;20038;-84
2021/07/12 09:44:25;;;;;;;15.75;10.18;;;871.30;1254.40;;;;;;5134926;27;20130;-80
2021/07/12 09:46:51;;;;;;;20.50;11.15;;;896.10;1228.80;;;;;;5135087;27;20290;-80
2021/07/12 09:49:23;;;;;;;12.23;9.80;;;896.00;1203.20;;;;;;5135356;27;20046;-88
2021/07/12 09:51:54;;;;;;;16.77;10.93;;;871.30;1228.80;;;;;;5136299;27;20027;-86
2021/07/12 09:54:21;;;;;;;10.40;8.90;;;896.10;1228.80;;;;;;5134459;27;20019;-88
2021/07/12 09:56:50;;;;;;;15.10;9.38;;;896.70;1152.00;;;;;;5123315;27;20389;-82
2021/07/12 09:59:16;;;;;;;12.70;10.07;;;896.50;1177.60;;;;;;5126801;27;20064;-82
2021/07/12 10:01:50;;;;;;;11.63;9.27;;;896.90;1152.00;;;;;;5115737;28;20129;-86
2021/07/12 10:04:16;;;;;;;14.82;10.65;;;896.80;1177.60;;;;;;5122718;27;20468;-84
2021/07/12 10:06:44;;;;;;;12.70;10.50;;;896.70;1203.20;;;;;;5136385;27;20019;-91
2021/07/12 10:09:10;;;;;;;13.40;10.50;;;896.70;1203.20;;;;;;5136772;27;20049;-83
2021/07/12 10:11:36;;;;;;;12.15;10.43;;;896.80;1177.60;;;;;;5135195;27;20062;-81
2021/07/12 10:14:04;;;;;;;15.30;10.60;;;896.70;1203.20;;;;;;5131154;27;20122;-84
2021/07/12 10:16:30;;;;;;;15.70;10.85;;;896.40;1228.80;;;;;;5134195;27;20479;-81
2021/07/12 10:18:56;;;;;;;10.40;9.40;;;896.40;1203.20;;;;;;5133756;27;20123;-81
2021/07/12 10:21:22;;;;;;;12.73;10.18;;;921.70;1203.20;;;;;;5135727;27;20472;-80
2021/07/12 10:23:56;;;;;;;12.75;10.95;;;896.70;1203.20;;;;;;5134786;27;20023;-80
2021/07/12 10:26:45;;;;;;;18.35;11.82;;;896.70;1203.20;;;;;;5135227;27;20053;-80
2021/07/12 10:29:15;;;;;;;14.35;10.57;;;871.30;1254.40;;;;;;5134189;27;20480;-80
2021/07/12 10:32:04;;;;;;;22.60;10.77;;;896.00;1254.40;;;;;;5134531;27;20067;-82
2021/07/12 10:34:37;;;;;;;13.13;9.85;;;871.30;1254.40;;;;;;5133532;27;20122;-82
2021/07/12 10:37:15;;;;;;;13.35;9.38;;;871.20;1203.20;;;;;;5134115;27;20035;-88
2021/07/12 10:40:08;;;;;;;15.13;10.02;;;896.10;1254.40;;;;;;5134101;27;20060;-80
2021/07/12 10:42:43;;;;;;;16.17;9.85;;;870.90;1254.40;;;;;;5134262;27;20053;-86
2021/07/12 10:45:13;;;;;;;14.02;9.90;;;871.10;1228.80;;;;;;5151985;27;20053;-82
2021/07/12 10:48:01;;;;;;;18.60;10.18;;;871.10;1228.80;;;;;;5137508;27;20019;-79
2021/07/12 10:50:33;;;;;;;13.98;9.68;;;871.00;1254.40;;;;;;5136550;27;20033;-81
2021/07/12 10:53:24;;;;;;;14.23;10.27;;;870.70;1280.00;;;;;;5136857;27;20030;-79
2021/07/12 10:56:05;;;;;;;15.20;8.75;;;870.80;1254.40;;;;;;5136753;27;20050;-79
2021/07/12 10:58:31;;;;;;;11.10;9.07;;;870.70;1280.00;;;;;;5137119;27;20463;-80
2021/07/12 11:00:59;;;;;;;15.93;9.80;;;871.00;1254.40;;;;;;5136865;27;20118;-87
2021/07/12 11:03:41;;;;;;;14.85;9.88;;;871.00;1203.20;;;;;;5155313;27;20384;-78
2021/07/12 11:06:22;;;;;;;13.32;9.60;;;870.90;1228.80;;;;;;5156054;27;20111;-79
2021/07/12 11:08:54;;;;;;;11.05;8.65;;;870.90;1228.80;;;;;;5136711;27;20018;-88
2021/07/12 11:11:20;;;;;;;12.68;8.50;;;871.00;1228.80;;;;;;5136767;27;20494;-78
2021/07/12 11:13:52;;;;;;;12.45;8.65;;;871.10;1228.80;;;;;;5155062;27;20105;-80
2021/07/12 11:16:19;;;;;;;11.35;9.75;;;871.10;1203.20;;;;;;5155253;27;20051;-78
2021/07/12 11:18:45;;;;;;;11.57;9.45;;;871.20;1203.20;;;;;;5136948;27;20027;-79
2021/07/12 11:21:14;;;;;;;11.35;8.85;;;871.30;1177.60;;;;;;5136788;27;20043;-88
2021/07/12 11:24:05;;;;;;;12.85;8.23;;;871.30;1177.60;;;;;;5137238;27;20030;-79
2021/07/12 11:26:31;;;;;;;14.50;8.43;;;871.10;1203.20;;;;;;5136602;27;20030;-85
2021/07/12 11:29:10;;;;;;;12.85;7.97;;;871.10;1152.00;;;;;;5136254;27;20164;-78
2021/07/12 11:31:41;;;;;;;11.77;8.27;;;871.10;1177.60;;;;;;5136316;27;20042;-81
2021/07/12 11:34:19;;;;;;;10.70;8.15;;;871.10;1177.60;;;;;;5136223;27;20029;-79
2021/07/12 11:36:53;;;;;;;9.93;8.15;;;871.20;1152.00;;;;;;5136333;27;20053;-78
2021/07/12 11:39:21;;;;;;;17.77;8.00;;;871.30;1126.40;;;;;;5154248;27;20042;-78
2021/07/12 11:41:47;;;;;;;14.73;8.23;;;871.20;1126.40;;;;;;5135351;27;20118;-81
2021/07/12 11:44:15;;;;;;;11.52;8.32;;;871.20;1126.40;;;;;;5135566;27;20042;-83
2021/07/12 11:46:42;;;;;;;10.48;8.38;;;896.00;1126.40;;;;;;5135068;27;20027;-79
2021/07/12 11:49:16;;;;;;;9.90;7.43;;;871.30;1126.40;;;;;;5154870;27;20547;-78
2021/07/12 11:51:43;;;;;;;11.52;7.47;;;871.10;1152.00;;;;;;5154409;27;20064;-77
2021/07/12 11:54:18;;;;;;;10.88;7.45;;;871.20;1152.00;;;;;;5154191;27;20068;-82
2021/07/12 11:56:59;;;;;;;14.18;7.68;;;871.20;1152.00;;;;;;5136119;27;20051;-76
2021/07/12 11:59:26;;;;;;;12.98;7.25;;;871.30;1126.40;;;;;;5154256;27;20011;-86
2021/07/12 12:01:57;;;;;;;15.75;6.95;;;871.30;1126.40;;;;;;5135846;27;20084;-79
2021/07/12 12:04:23;;;;;;;15.70;7.35;;;871.30;1126.40;;;;;;5154024;27;20106;-81
2021/07/12 12:06:48;;;;;;;9.90;6.70;;;896.00;1100.80;;;;;;5170150;27;20109;-78
2021/07/12 12:09:14;;;;;;;11.48;7.20;;;896.10;1075.20;;;;;;5154155;27;20026;-79
2021/07/12 12:11:40;;;;;;;11.10;7.53;;;896.10;1100.80;;;;;;5135535;27;20022;-78
2021/07/12 12:14:06;;;;;;;8.27;7.38;;;896.40;1075.20;;;;;;5135470;27;20029;-78
2021/07/12 12:16:32;;;;;;;10.50;7.20;;;896.40;1075.20;;;;;;5153832;27;20022;-77